sensor_id;sensor_type;location;lat;lon;timestamp;temperature;humidity
13652;DHT22;6899;51.546;6.912;2023-10-08T00:01:02;16.90;99.90
13652;DHT22;6899;51.546;6.912;2023-10-08T00:03:31;16.80;99.90
13652;DHT22;6899;51.546;6.912;2023-10-08T00:06:02;16.80;99.90
13652;DHT22;6899;51.546;6.912;2023-10-08T00:08:32;16.80;99.90
13652;DHT22;6899;51.546;6.912;2023-10-08T00:11:00;16.80;99.90
13652;DHT22;6899;51.546;6.912;2023-10-08T00:13:32;16.80;99.90
13652;DHT22;6899;51.546;6.912;2023-10-08T00:16:02;16.80;99.90
13652;DHT22;6899;51.546;6.912;2023-10-08T00:18:31;16.80;99.90
13652;DHT22;6899;51.546;6.912;2023-10-08T00:20:59;16.80;99.90
13652;DHT22;6899;51.546;6.912;2023-10-08T00:23:41;16.70;99.90
13652;DHT22;6899;51.546;6.912;2023-10-08T00:26:15;16.70;99.90
13652;DHT22;6899;51.546;6.912;2023-10-08T00:28:46;16.80;99.90
13652;DHT22;6899;51.546;6.912;2023-10-08T00:31:13;16.80;99.90
13652;DHT22;6899;51.546;6.912;2023-10-08T00:33:43;16.80;99.90
13652;DHT22;6899;51.546;6.912;2023-10-08T00:36:10;16.90;99.90
13652;DHT22;6899;51.546;6.912;2023-10-08T00:38:44;16.80;99.90
13652;DHT22;6899;51.546;6.912;2023-10-08T00:41:16;16.80;99.90
13652;DHT22;6899;51.546;6.912;2023-10-08T00:43:47;16.80;99.90
13652;DHT22;6899;51.546;6.912;2023-10-08T00:46:16;16.70;99.90
13652;DHT22;6899;51.546;6.912;2023-10-08T00:48:49;16.70;99.90
13652;DHT22;6899;51.546;6.912;2023-10-08T00:51:18;16.70;99.90
13652;DHT22;6899;51.546;6.912;2023-10-08T00:53:54;16.60;99.90
13652;DHT22;6899;51.546;6.912;2023-10-08T00:56:26;16.60;99.90
13652;DHT22;6899;51.546;6.912;2023-10-08T00:59:10;16.60;99.90
13652;DHT22;6899;51.546;6.912;2023-10-08T01:01:39;16.50;99.90
13652;DHT22;6899;51.546;6.912;2023-10-08T01:04:15;16.50;99.90
13652;DHT22;6899;51.546;6.912;2023-10-08T01:06:42;16.50;99.90
13652;DHT22;6899;51.546;6.912;2023-10-08T01:09:09;16.50;99.90
13652;DHT22;6899;51.546;6.912;2023-10-08T01:11:45;16.50;99.90
13652;DHT22;6899;51.546;6.912;2023-10-08T01:14:15;16.40;99.90
13652;DHT22;6899;51.546;6.912;2023-10-08T01:16:46;16.40;99.90
13652;DHT22;6899;51.546;6.912;2023-10-08T01:19:18;16.30;99.90
13652;DHT22;6899;51.546;6.912;2023-10-08T01:21:46;16.30;99.90
13652;DHT22;6899;51.546;6.912;2023-10-08T01:24:15;16.30;99.90
13652;DHT22;6899;51.546;6.912;2023-10-08T01:26:43;16.40;99.90
13652;DHT22;6899;51.546;6.912;2023-10-08T01:29:11;16.40;99.90
13652;DHT22;6899;51.546;6.912;2023-10-08T01:31:45;16.40;99.90
13652;DHT22;6899;51.546;6.912;2023-10-08T01:34:12;16.50;99.90
13652;DHT22;6899;51.546;6.912;2023-10-08T01:36:42;16.60;99.90
13652;DHT22;6899;51.546;6.912;2023-10-08T01:39:09;16.70;99.90
13652;DHT22;6899;51.546;6.912;2023-10-08T01:41:43;16.70;99.90
13652;DHT22;6899;51.546;6.912;2023-10-08T01:44:09;16.60;99.90
13652;DHT22;6899;51.546;6.912;2023-10-08T01:46:37;16.60;99.90
13652;DHT22;6899;51.546;6.912;2023-10-08T01:49:06;16.50;99.90
13652;DHT22;6899;51.546;6.912;2023-10-08T01:51:39;16.40;99.90
13652;DHT22;6899;51.546;6.912;2023-10-08T01:54:12;16.40;99.90
13652;DHT22;6899;51.546;6.912;2023-10-08T01:56:43;16.30;99.90
13652;DHT22;6899;51.546;6.912;2023-10-08T01:59:10;16.30;99.90
13652;DHT22;6899;51.546;6.912;2023-10-08T02:01:39;16.30;99.90
13652;DHT22;6899;51.546;6.912;2023-10-08T02:04:06;16.20;99.90
13652;DHT22;6899;51.546;6.912;2023-10-08T02:06:34;16.30;99.90
13652;DHT22;6899;51.546;6.912;2023-10-08T02:09:01;16.30;99.90
13652;DHT22;6899;51.546;6.912;2023-10-08T02:11:43;16.40;99.90
13652;DHT22;6899;51.546;6.912;2023-10-08T02:14:10;16.40;99.90
13652;DHT22;6899;51.546;6.912;2023-10-08T02:16:38;16.40;99.90
13652;DHT22;6899;51.546;6.912;2023-10-08T02:19:05;16.40;99.90
13652;DHT22;6899;51.546;6.912;2023-10-08T02:21:32;16.40;99.90
13652;DHT22;6899;51.546;6.912;2023-10-08T02:23:59;16.30;99.90
13652;DHT22;6899;51.546;6.912;2023-10-08T02:26:28;16.40;99.90
13652;DHT22;6899;51.546;6.912;2023-10-08T02:28:56;16.30;99.90
13652;DHT22;6899;51.546;6.912;2023-10-08T02:31:25;16.20;99.90
13652;DHT22;6899;51.546;6.912;2023-10-08T02:33:53;16.20;99.90
13652;DHT22;6899;51.546;6.912;2023-10-08T02:36:20;16.20;99.90
13652;DHT22;6899;51.546;6.912;2023-10-08T02:38:47;16.20;99.90
13652;DHT22;6899;51.546;6.912;2023-10-08T02:41:16;16.10;99.90
13652;DHT22;6899;51.546;6.912;2023-10-08T02:43:43;16.10;99.90
13652;DHT22;6899;51.546;6.912;2023-10-08T02:46:12;16.00;99.90
13652;DHT22;6899;51.546;6.912;2023-10-08T02:48:41;16.00;99.90
13652;DHT22;6899;51.546;6.912;2023-10-08T02:51:07;15.90;99.90
13652;DHT22;6899;51.546;6.912;2023-10-08T02:53:40;16.00;99.90
13652;DHT22;6899;51.546;6.912;2023-10-08T02:56:09;15.90;99.90
13652;DHT22;6899;51.546;6.912;2023-10-08T02:58:39;15.90;99.90
13652;DHT22;6899;51.546;6.912;2023-10-08T03:01:07;15.90;99.90
13652;DHT22;6899;51.546;6.912;2023-10-08T03:03:39;16.00;99.90
13652;DHT22;6899;51.546;6.912;2023-10-08T03:06:07;16.00;99.90
13652;DHT22;6899;51.546;6.912;2023-10-08T03:08:37;16.00;99.90
13652;DHT22;6899;51.546;6.912;2023-10-08T03:11:08;16.10;99.90
13652;DHT22;6899;51.546;6.912;2023-10-08T03:13:43;16.10;99.90
13652;DHT22;6899;51.546;6.912;2023-10-08T03:16:12;16.10;99.90
13652;DHT22;6899;51.546;6.912;2023-10-08T03:18:41;16.10;99.90
13652;DHT22;6899;51.546;6.912;2023-10-08T03:21:11;16.20;99.90
13652;DHT22;6899;51.546;6.912;2023-10-08T03:23:48;16.20;99.90
13652;DHT22;6899;51.546;6.912;2023-10-08T03:26:16;16.20;99.90
13652;DHT22;6899;51.546;6.912;2023-10-08T03:29:01;16.30;99.90
13652;DHT22;6899;51.546;6.912;2023-10-08T03:31:33;16.30;99.90
13652;DHT22;6899;51.546;6.912;2023-10-08T03:34:17;16.30;99.90
13652;DHT22;6899;51.546;6.912;2023-10-08T03:36:46;16.30;99.90
13652;DHT22;6899;51.546;6.912;2023-10-08T03:39:15;16.30;99.90
13652;DHT22;6899;51.546;6.912;2023-10-08T03:41:45;16.20;99.90
13652;DHT22;6899;51.546;6.912;2023-10-08T03:44:25;16.10;99.90
13652;DHT22;6899;51.546;6.912;2023-10-08T03:46:51;16.10;99.90
13652;DHT22;6899;51.546;6.912;2023-10-08T03:49:19;16.10;99.90
13652;DHT22;6899;51.546;6.912;2023-10-08T03:51:52;16.00;99.90
13652;DHT22;6899;51.546;6.912;2023-10-08T03:54:19;16.10;99.90
13652;DHT22;6899;51.546;6.912;2023-10-08T03:56:55;16.10;99.90
13652;DHT22;6899;51.546;6.912;2023-10-08T03:59:23;16.10;99.90
13652;DHT22;6899;51.546;6.912;2023-10-08T04:01:57;16.10;99.90
13652;DHT22;6899;51.546;6.912;2023-10-08T04:04:36;16.10;99.90
13652;DHT22;6899;51.546;6.912;2023-10-08T04:07:16;16.10;99.90
13652;DHT22;6899;51.546;6.912;2023-10-08T04:10:06;16.00;99.90
13652;DHT22;6899;51.546;6.912;2023-10-08T04:13:00;15.90;99.90
13652;DHT22;6899;51.546;6.912;2023-10-08T04:15:27;15.80;99.90
13652;DHT22;6899;51.546;6.912;2023-10-08T04:17:53;15.70;99.90
13652;DHT22;6899;51.546;6.912;2023-10-08T04:20:23;15.60;99.90
13652;DHT22;6899;51.546;6.912;2023-10-08T04:23:05;15.60;99.90
13652;DHT22;6899;51.546;6.912;2023-10-08T04:25:39;15.60;99.90
13652;DHT22;6899;51.546;6.912;2023-10-08T04:28:07;15.60;99.90
13652;DHT22;6899;51.546;6.912;2023-10-08T04:30:38;15.60;99.90
13652;DHT22;6899;51.546;6.912;2023-10-08T04:33:08;15.60;99.90
13652;DHT22;6899;51.546;6.912;2023-10-08T04:35:41;15.70;99.90
13652;DHT22;6899;51.546;6.912;2023-10-08T04:38:13;15.70;99.90
13652;DHT22;6899;51.546;6.912;2023-10-08T04:40:43;15.70;99.90
13652;DHT22;6899;51.546;6.912;2023-10-08T04:43:14;15.70;99.90
13652;DHT22;6899;51.546;6.912;2023-10-08T04:45:48;15.80;99.90
13652;DHT22;6899;51.546;6.912;2023-10-08T04:48:15;15.80;99.90
13652;DHT22;6899;51.546;6.912;2023-10-08T04:50:47;15.70;99.90
13652;DHT22;6899;51.546;6.912;2023-10-08T04:53:24;15.70;99.90
13652;DHT22;6899;51.546;6.912;2023-10-08T04:55:58;15.70;99.90
13652;DHT22;6899;51.546;6.912;2023-10-08T04:58:28;15.70;99.90
13652;DHT22;6899;51.546;6.912;2023-10-08T05:00:59;15.70;99.90
13652;DHT22;6899;51.546;6.912;2023-10-08T05:03:43;15.80;99.90
13652;DHT22;6899;51.546;6.912;2023-10-08T05:06:22;15.70;99.90
13652;DHT22;6899;51.546;6.912;2023-10-08T05:09:15;15.70;99.90
13652;DHT22;6899;51.546;6.912;2023-10-08T05:11:51;15.70;99.90
13652;DHT22;6899;51.546;6.912;2023-10-08T05:14:36;15.60;99.90
13652;DHT22;6899;51.546;6.912;2023-10-08T05:17:11;15.60;99.90
13652;DHT22;6899;51.546;6.912;2023-10-08T05:19:37;15.60;99.90
13652;DHT22;6899;51.546;6.912;2023-10-08T05:22:23;15.60;99.90
13652;DHT22;6899;51.546;6.912;2023-10-08T05:25:09;15.50;99.90
13652;DHT22;6899;51.546;6.912;2023-10-08T05:27:53;15.50;99.90
13652;DHT22;6899;51.546;6.912;2023-10-08T05:30:34;15.50;99.90
13652;DHT22;6899;51.546;6.912;2023-10-08T05:33:08;15.40;99.90
13652;DHT22;6899;51.546;6.912;2023-10-08T05:35:49;15.40;99.90
13652;DHT22;6899;51.546;6.912;2023-10-08T05:38:22;15.40;99.90
13652;DHT22;6899;51.546;6.912;2023-10-08T05:40:49;15.30;99.90
13652;DHT22;6899;51.546;6.912;2023-10-08T05:43:42;15.30;99.90
13652;DHT22;6899;51.546;6.912;2023-10-08T05:46:21;15.20;99.90
13652;DHT22;6899;51.546;6.912;2023-10-08T05:49:16;15.10;99.90
13652;DHT22;6899;51.546;6.912;2023-10-08T05:52:04;15.10;99.90
13652;DHT22;6899;51.546;6.912;2023-10-08T05:54:49;15.10;99.90
13652;DHT22;6899;51.546;6.912;2023-10-08T05:57:40;15.10;99.90
13652;DHT22;6899;51.546;6.912;2023-10-08T06:00:12;15.10;99.90
13652;DHT22;6899;51.546;6.912;2023-10-08T06:02:57;15.10;99.90
13652;DHT22;6899;51.546;6.912;2023-10-08T06:05:58;15.10;99.90
13652;DHT22;6899;51.546;6.912;2023-10-08T06:08:40;15.10;99.90
13652;DHT22;6899;51.546;6.912;2023-10-08T06:11:19;15.10;99.90
13652;DHT22;6899;51.546;6.912;2023-10-08T06:14:03;15.20;99.90
13652;DHT22;6899;51.546;6.912;2023-10-08T06:16:39;15.30;99.90
13652;DHT22;6899;51.546;6.912;2023-10-08T06:19:10;15.30;99.90
13652;DHT22;6899;51.546;6.912;2023-10-08T06:21:37;15.40;99.90
13652;DHT22;6899;51.546;6.912;2023-10-08T06:24:05;15.40;99.90
13652;DHT22;6899;51.546;6.912;2023-10-08T06:26:37;15.40;99.90
13652;DHT22;6899;51.546;6.912;2023-10-08T06:29:09;15.40;99.90
13652;DHT22;6899;51.546;6.912;2023-10-08T06:31:45;15.40;99.90
13652;DHT22;6899;51.546;6.912;2023-10-08T06:34:17;15.50;99.90
13652;DHT22;6899;51.546;6.912;2023-10-08T06:36:47;15.50;99.90
13652;DHT22;6899;51.546;6.912;2023-10-08T06:39:19;15.70;99.90
13652;DHT22;6899;51.546;6.912;2023-10-08T06:41:53;15.60;99.90
13652;DHT22;6899;51.546;6.912;2023-10-08T06:44:20;15.70;99.90
13652;DHT22;6899;51.546;6.912;2023-10-08T06:46:47;15.70;99.90
13652;DHT22;6899;51.546;6.912;2023-10-08T06:49:18;15.70;99.90
13652;DHT22;6899;51.546;6.912;2023-10-08T06:51:45;15.80;99.90
13652;DHT22;6899;51.546;6.912;2023-10-08T06:54:13;15.70;99.90
13652;DHT22;6899;51.546;6.912;2023-10-08T06:56:42;15.70;99.90
13652;DHT22;6899;51.546;6.912;2023-10-08T06:59:13;15.70;99.90
13652;DHT22;6899;51.546;6.912;2023-10-08T07:01:40;15.70;99.90
13652;DHT22;6899;51.546;6.912;2023-10-08T07:04:12;15.70;99.90
13652;DHT22;6899;51.546;6.912;2023-10-08T07:06:39;15.80;99.90
13652;DHT22;6899;51.546;6.912;2023-10-08T07:09:06;15.80;99.90
13652;DHT22;6899;51.546;6.912;2023-10-08T07:11:48;15.90;99.90
13652;DHT22;6899;51.546;6.912;2023-10-08T07:14:16;15.90;99.90
13652;DHT22;6899;51.546;6.912;2023-10-08T07:16:43;15.80;99.90
13652;DHT22;6899;51.546;6.912;2023-10-08T07:19:13;15.90;99.90
13652;DHT22;6899;51.546;6.912;2023-10-08T07:21:44;15.90;99.90
13652;DHT22;6899;51.546;6.912;2023-10-08T07:24:12;15.90;99.90
13652;DHT22;6899;51.546;6.912;2023-10-08T07:26:43;16.00;99.90
13652;DHT22;6899;51.546;6.912;2023-10-08T07:29:13;16.00;99.90
13652;DHT22;6899;51.546;6.912;2023-10-08T07:31:44;16.10;99.90
13652;DHT22;6899;51.546;6.912;2023-10-08T07:34:15;16.20;99.90
13652;DHT22;6899;51.546;6.912;2023-10-08T07:36:51;16.30;99.90
13652;DHT22;6899;51.546;6.912;2023-10-08T07:39:21;16.50;99.90
13652;DHT22;6899;51.546;6.912;2023-10-08T07:42:02;16.60;99.90
13652;DHT22;6899;51.546;6.912;2023-10-08T07:44:31;16.90;99.90
13652;DHT22;6899;51.546;6.912;2023-10-08T07:47:02;17.10;99.90
13652;DHT22;6899;51.546;6.912;2023-10-08T07:49:35;17.10;99.90
13652;DHT22;6899;51.546;6.912;2023-10-08T07:52:02;17.20;99.90
13652;DHT22;6899;51.546;6.912;2023-10-08T07:54:31;17.00;99.90
13652;DHT22;6899;51.546;6.912;2023-10-08T07:57:00;16.90;99.90
13652;DHT22;6899;51.546;6.912;2023-10-08T07:59:34;16.80;99.90
13652;DHT22;6899;51.546;6.912;2023-10-08T08:02:05;16.70;99.90
13652;DHT22;6899;51.546;6.912;2023-10-08T08:04:35;16.60;99.90
13652;DHT22;6899;51.546;6.912;2023-10-08T08:07:02;16.50;99.90
13652;DHT22;6899;51.546;6.912;2023-10-08T08:09:31;16.40;99.90
13652;DHT22;6899;51.546;6.912;2023-10-08T08:12:04;16.40;99.90
13652;DHT22;6899;51.546;6.912;2023-10-08T08:14:33;16.30;99.90
13652;DHT22;6899;51.546;6.912;2023-10-08T08:17:05;16.10;99.90
13652;DHT22;6899;51.546;6.912;2023-10-08T08:19:39;16.00;99.90
13652;DHT22;6899;51.546;6.912;2023-10-08T08:22:06;16.00;99.90
13652;DHT22;6899;51.546;6.912;2023-10-08T08:24:32;15.90;99.90
13652;DHT22;6899;51.546;6.912;2023-10-08T08:27:01;15.90;99.90
13652;DHT22;6899;51.546;6.912;2023-10-08T08:29:34;15.90;99.90
13652;DHT22;6899;51.546;6.912;2023-10-08T08:32:11;15.70;99.90
13652;DHT22;6899;51.546;6.912;2023-10-08T08:34:41;15.70;99.90
13652;DHT22;6899;51.546;6.912;2023-10-08T08:37:09;15.60;99.90
13652;DHT22;6899;51.546;6.912;2023-10-08T08:39:36;15.60;99.90
13652;DHT22;6899;51.546;6.912;2023-10-08T08:42:04;15.50;99.90
13652;DHT22;6899;51.546;6.912;2023-10-08T08:44:32;15.40;99.90
13652;DHT22;6899;51.546;6.912;2023-10-08T08:47:00;15.40;99.90
13652;DHT22;6899;51.546;6.912;2023-10-08T08:49:32;15.40;99.90
13652;DHT22;6899;51.546;6.912;2023-10-08T08:52:03;15.30;99.90
13652;DHT22;6899;51.546;6.912;2023-10-08T08:54:30;15.50;99.90
13652;DHT22;6899;51.546;6.912;2023-10-08T08:56:59;15.60;99.90
13652;DHT22;6899;51.546;6.912;2023-10-08T08:59:30;15.60;99.90
13652;DHT22;6899;51.546;6.912;2023-10-08T09:01:58;15.60;99.90
13652;DHT22;6899;51.546;6.912;2023-10-08T09:04:30;15.50;99.90
13652;DHT22;6899;51.546;6.912;2023-10-08T09:06:59;15.60;99.90
13652;DHT22;6899;51.546;6.912;2023-10-08T09:09:32;15.60;99.90
13652;DHT22;6899;51.546;6.912;2023-10-08T09:11:59;15.70;99.90
13652;DHT22;6899;51.546;6.912;2023-10-08T09:14:27;15.70;99.90
13652;DHT22;6899;51.546;6.912;2023-10-08T09:16:57;15.70;99.90
13652;DHT22;6899;51.546;6.912;2023-10-08T09:19:25;15.70;99.90
13652;DHT22;6899;51.546;6.912;2023-10-08T09:22:04;15.70;99.90
13652;DHT22;6899;51.546;6.912;2023-10-08T09:24:32;15.80;99.90
13652;DHT22;6899;51.546;6.912;2023-10-08T09:27:02;15.70;99.90
13652;DHT22;6899;51.546;6.912;2023-10-08T09:29:29;15.80;99.90
13652;DHT22;6899;51.546;6.912;2023-10-08T09:31:57;15.90;99.90
13652;DHT22;6899;51.546;6.912;2023-10-08T09:34:28;15.80;99.90
13652;DHT22;6899;51.546;6.912;2023-10-08T09:36:57;15.80;99.90
13652;DHT22;6899;51.546;6.912;2023-10-08T09:39:27;15.70;99.90
13652;DHT22;6899;51.546;6.912;2023-10-08T09:41:55;15.70;99.90
13652;DHT22;6899;51.546;6.912;2023-10-08T09:44:24;15.80;99.90
13652;DHT22;6899;51.546;6.912;2023-10-08T09:46:53;16.00;99.90
13652;DHT22;6899;51.546;6.912;2023-10-08T09:49:28;16.00;99.90
13652;DHT22;6899;51.546;6.912;2023-10-08T09:52:01;16.30;99.90
13652;DHT22;6899;51.546;6.912;2023-10-08T09:54:37;16.40;99.90
13652;DHT22;6899;51.546;6.912;2023-10-08T09:57:10;16.50;99.90
13652;DHT22;6899;51.546;6.912;2023-10-08T09:59:37;16.50;99.90
13652;DHT22;6899;51.546;6.912;2023-10-08T10:02:05;16.50;99.90
13652;DHT22;6899;51.546;6.912;2023-10-08T10:04:35;16.40;99.90
13652;DHT22;6899;51.546;6.912;2023-10-08T10:07:09;16.20;99.90
13652;DHT22;6899;51.546;6.912;2023-10-08T10:09:43;16.10;99.90
13652;DHT22;6899;51.546;6.912;2023-10-08T10:12:12;16.10;99.90
13652;DHT22;6899;51.546;6.912;2023-10-08T10:14:46;16.00;99.90
13652;DHT22;6899;51.546;6.912;2023-10-08T10:17:14;16.20;99.90
13652;DHT22;6899;51.546;6.912;2023-10-08T10:19:44;16.30;99.90
13652;DHT22;6899;51.546;6.912;2023-10-08T10:22:14;16.40;99.90
13652;DHT22;6899;51.546;6.912;2023-10-08T10:24:43;16.50;99.90
13652;DHT22;6899;51.546;6.912;2023-10-08T10:27:12;16.30;99.90
13652;DHT22;6899;51.546;6.912;2023-10-08T10:29:40;16.50;99.90
13652;DHT22;6899;51.546;6.912;2023-10-08T10:32:10;16.70;99.90
13652;DHT22;6899;51.546;6.912;2023-10-08T10:34:39;16.60;99.90
13652;DHT22;6899;51.546;6.912;2023-10-08T10:37:06;16.50;99.90
13652;DHT22;6899;51.546;6.912;2023-10-08T10:39:36;16.30;99.90
13652;DHT22;6899;51.546;6.912;2023-10-08T10:42:08;16.20;99.90
13652;DHT22;6899;51.546;6.912;2023-10-08T10:44:46;16.10;99.90
13652;DHT22;6899;51.546;6.912;2023-10-08T10:47:16;16.10;99.90
13652;DHT22;6899;51.546;6.912;2023-10-08T10:50:08;16.40;99.90
13652;DHT22;6899;51.546;6.912;2023-10-08T10:52:52;16.60;99.90
13652;DHT22;6899;51.546;6.912;2023-10-08T10:55:20;16.60;99.90
13652;DHT22;6899;51.546;6.912;2023-10-08T10:57:58;16.40;99.90
13652;DHT22;6899;51.546;6.912;2023-10-08T11:00:42;16.40;99.90
13652;DHT22;6899;51.546;6.912;2023-10-08T11:03:14;16.50;99.90
13652;DHT22;6899;51.546;6.912;2023-10-08T11:05:51;16.80;99.90
13652;DHT22;6899;51.546;6.912;2023-10-08T11:08:21;16.90;99.90
13652;DHT22;6899;51.546;6.912;2023-10-08T11:10:50;17.00;99.90
13652;DHT22;6899;51.546;6.912;2023-10-08T11:13:21;17.10;99.90
13652;DHT22;6899;51.546;6.912;2023-10-08T11:15:54;17.20;99.90
13652;DHT22;6899;51.546;6.912;2023-10-08T11:18:25;17.20;99.90
13652;DHT22;6899;51.546;6.912;2023-10-08T11:20:58;17.50;99.90
13652;DHT22;6899;51.546;6.912;2023-10-08T11:23:42;17.50;99.90
13652;DHT22;6899;51.546;6.912;2023-10-08T11:26:09;17.80;99.90
13652;DHT22;6899;51.546;6.912;2023-10-08T11:28:40;18.00;99.90
13652;DHT22;6899;51.546;6.912;2023-10-08T11:31:11;17.70;99.90
13652;DHT22;6899;51.546;6.912;2023-10-08T11:33:39;17.70;99.90
13652;DHT22;6899;51.546;6.912;2023-10-08T11:36:08;17.70;99.90
13652;DHT22;6899;51.546;6.912;2023-10-08T11:38:44;17.70;99.90
13652;DHT22;6899;51.546;6.912;2023-10-08T11:41:14;17.70;99.90
13652;DHT22;6899;51.546;6.912;2023-10-08T11:43:50;17.90;99.90
13652;DHT22;6899;51.546;6.912;2023-10-08T11:46:21;17.80;99.90
13652;DHT22;6899;51.546;6.912;2023-10-08T11:48:47;17.70;99.90
13652;DHT22;6899;51.546;6.912;2023-10-08T11:51:16;17.50;99.90
13652;DHT22;6899;51.546;6.912;2023-10-08T11:53:43;17.60;99.90
13652;DHT22;6899;51.546;6.912;2023-10-08T11:56:11;17.50;99.90
13652;DHT22;6899;51.546;6.912;2023-10-08T11:58:39;17.80;99.90
13652;DHT22;6899;51.546;6.912;2023-10-08T12:01:11;17.90;99.90
13652;DHT22;6899;51.546;6.912;2023-10-08T12:03:42;18.10;99.90
13652;DHT22;6899;51.546;6.912;2023-10-08T12:06:10;18.20;99.90
13652;DHT22;6899;51.546;6.912;2023-10-08T12:08:41;18.20;99.90
13652;DHT22;6899;51.546;6.912;2023-10-08T12:11:12;18.20;99.90
13652;DHT22;6899;51.546;6.912;2023-10-08T12:13:39;18.20;99.90
13652;DHT22;6899;51.546;6.912;2023-10-08T12:16:11;17.90;99.90
13652;DHT22;6899;51.546;6.912;2023-10-08T12:18:45;17.90;99.90
13652;DHT22;6899;51.546;6.912;2023-10-08T12:21:14;18.10;99.90
13652;DHT22;6899;51.546;6.912;2023-10-08T12:23:43;18.30;99.90
13652;DHT22;6899;51.546;6.912;2023-10-08T12:26:12;18.00;99.90
13652;DHT22;6899;51.546;6.912;2023-10-08T12:28:41;18.10;99.90
13652;DHT22;6899;51.546;6.912;2023-10-08T12:31:12;18.00;99.90
13652;DHT22;6899;51.546;6.912;2023-10-08T12:33:41;18.10;99.90
13652;DHT22;6899;51.546;6.912;2023-10-08T12:36:09;18.10;99.90
13652;DHT22;6899;51.546;6.912;2023-10-08T12:38:43;17.90;99.90
13652;DHT22;6899;51.546;6.912;2023-10-08T12:41:10;17.90;99.90
13652;DHT22;6899;51.546;6.912;2023-10-08T12:43:40;18.00;99.90
13652;DHT22;6899;51.546;6.912;2023-10-08T12:46:12;18.00;99.90
13652;DHT22;6899;51.546;6.912;2023-10-08T12:48:44;18.10;99.90
13652;DHT22;6899;51.546;6.912;2023-10-08T12:51:14;18.10;99.90
13652;DHT22;6899;51.546;6.912;2023-10-08T12:53:41;18.10;99.90
13652;DHT22;6899;51.546;6.912;2023-10-08T12:56:16;18.10;99.90
13652;DHT22;6899;51.546;6.912;2023-10-08T12:58:47;18.00;99.90
13652;DHT22;6899;51.546;6.912;2023-10-08T13:01:16;17.90;99.90
13652;DHT22;6899;51.546;6.912;2023-10-08T13:03:44;17.70;99.90
13652;DHT22;6899;51.546;6.912;2023-10-08T13:06:14;17.50;99.90
13652;DHT22;6899;51.546;6.912;2023-10-08T13:08:48;17.40;99.90
13652;DHT22;6899;51.546;6.912;2023-10-08T13:11:14;17.50;99.90
13652;DHT22;6899;51.546;6.912;2023-10-08T13:13:48;17.50;99.90
13652;DHT22;6899;51.546;6.912;2023-10-08T13:16:17;17.50;99.90
13652;DHT22;6899;51.546;6.912;2023-10-08T13:18:43;17.60;99.90
13652;DHT22;6899;51.546;6.912;2023-10-08T13:21:11;17.70;99.90
13652;DHT22;6899;51.546;6.912;2023-10-08T13:23:38;17.70;99.90
13652;DHT22;6899;51.546;6.912;2023-10-08T13:26:05;17.60;99.90
13652;DHT22;6899;51.546;6.912;2023-10-08T13:28:33;17.50;99.90
13652;DHT22;6899;51.546;6.912;2023-10-08T13:31:00;17.70;99.90
13652;DHT22;6899;51.546;6.912;2023-10-08T13:33:36;17.70;99.90
13652;DHT22;6899;51.546;6.912;2023-10-08T13:36:05;17.70;99.90
13652;DHT22;6899;51.546;6.912;2023-10-08T13:38:35;17.70;99.90
13652;DHT22;6899;51.546;6.912;2023-10-08T13:41:03;17.60;99.90
13652;DHT22;6899;51.546;6.912;2023-10-08T13:43:32;17.50;99.90
13652;DHT22;6899;51.546;6.912;2023-10-08T13:46:04;17.20;99.90
13652;DHT22;6899;51.546;6.912;2023-10-08T13:48:37;17.00;99.90
13652;DHT22;6899;51.546;6.912;2023-10-08T13:51:05;16.80;99.90
13652;DHT22;6899;51.546;6.912;2023-10-08T13:53:39;16.70;99.90
13652;DHT22;6899;51.546;6.912;2023-10-08T13:56:06;16.60;99.90
13652;DHT22;6899;51.546;6.912;2023-10-08T13:58:37;16.70;99.90
13652;DHT22;6899;51.546;6.912;2023-10-08T14:01:07;16.70;99.90
13652;DHT22;6899;51.546;6.912;2023-10-08T14:03:46;16.80;99.90
13652;DHT22;6899;51.546;6.912;2023-10-08T14:06:14;16.70;99.90
13652;DHT22;6899;51.546;6.912;2023-10-08T14:08:42;16.90;99.90
13652;DHT22;6899;51.546;6.912;2023-10-08T14:11:14;17.10;99.90
13652;DHT22;6899;51.546;6.912;2023-10-08T14:13:41;17.20;99.90
13652;DHT22;6899;51.546;6.912;2023-10-08T14:16:08;17.40;99.90
13652;DHT22;6899;51.546;6.912;2023-10-08T14:18:36;17.30;99.90
13652;DHT22;6899;51.546;6.912;2023-10-08T14:21:08;17.10;99.90
13652;DHT22;6899;51.546;6.912;2023-10-08T14:23:36;16.80;99.90
13652;DHT22;6899;51.546;6.912;2023-10-08T14:26:05;16.60;99.90
13652;DHT22;6899;51.546;6.912;2023-10-08T14:28:33;16.50;99.90
13652;DHT22;6899;51.546;6.912;2023-10-08T14:31:17;16.30;99.90
13652;DHT22;6899;51.546;6.912;2023-10-08T14:33:48;16.20;99.90
13652;DHT22;6899;51.546;6.912;2023-10-08T14:36:32;16.10;99.90
13652;DHT22;6899;51.546;6.912;2023-10-08T14:39:16;16.20;99.90
13652;DHT22;6899;51.546;6.912;2023-10-08T14:42:01;16.30;99.90
13652;DHT22;6899;51.546;6.912;2023-10-08T14:44:45;16.30;99.90
13652;DHT22;6899;51.546;6.912;2023-10-08T14:47:15;16.30;99.90
13652;DHT22;6899;51.546;6.912;2023-10-08T14:49:42;16.30;99.90
13652;DHT22;6899;51.546;6.912;2023-10-08T14:52:10;16.30;99.90
13652;DHT22;6899;51.546;6.912;2023-10-08T14:54:37;16.30;99.90
13652;DHT22;6899;51.546;6.912;2023-10-08T14:57:05;16.30;99.90
13652;DHT22;6899;51.546;6.912;2023-10-08T14:59:32;16.40;99.90
13652;DHT22;6899;51.546;6.912;2023-10-08T15:01:59;16.60;99.90
13652;DHT22;6899;51.546;6.912;2023-10-08T15:04:26;16.70;99.90
13652;DHT22;6899;51.546;6.912;2023-10-08T15:06:54;16.70;99.90
13652;DHT22;6899;51.546;6.912;2023-10-08T15:09:23;16.70;99.90
13652;DHT22;6899;51.546;6.912;2023-10-08T15:11:50;16.70;99.90
13652;DHT22;6899;51.546;6.912;2023-10-08T15:14:18;16.70;99.90
13652;DHT22;6899;51.546;6.912;2023-10-08T15:16:46;16.70;99.90
13652;DHT22;6899;51.546;6.912;2023-10-08T15:19:18;16.70;99.90
13652;DHT22;6899;51.546;6.912;2023-10-08T15:21:44;16.70;99.90
13652;DHT22;6899;51.546;6.912;2023-10-08T15:24:16;16.70;99.90
13652;DHT22;6899;51.546;6.912;2023-10-08T15:26:44;16.60;99.90
13652;DHT22;6899;51.546;6.912;2023-10-08T15:29:13;16.50;99.90
13652;DHT22;6899;51.546;6.912;2023-10-08T15:31:40;16.40;99.90
13652;DHT22;6899;51.546;6.912;2023-10-08T15:34:07;16.30;99.90
13652;DHT22;6899;51.546;6.912;2023-10-08T15:36:34;16.30;99.90
13652;DHT22;6899;51.546;6.912;2023-10-08T15:39:00;16.30;99.90
13652;DHT22;6899;51.546;6.912;2023-10-08T15:41:30;16.20;99.90
13652;DHT22;6899;51.546;6.912;2023-10-08T15:43:58;16.20;99.90
13652;DHT22;6899;51.546;6.912;2023-10-08T15:46:25;16.20;99.90
13652;DHT22;6899;51.546;6.912;2023-10-08T15:48:53;16.20;99.90
13652;DHT22;6899;51.546;6.912;2023-10-08T15:51:20;16.20;99.90
13652;DHT22;6899;51.546;6.912;2023-10-08T15:53:46;16.20;99.90
13652;DHT22;6899;51.546;6.912;2023-10-08T15:56:13;16.20;99.90
13652;DHT22;6899;51.546;6.912;2023-10-08T15:58:40;16.20;99.90
13652;DHT22;6899;51.546;6.912;2023-10-08T16:01:08;16.20;99.90
13652;DHT22;6899;51.546;6.912;2023-10-08T16:03:37;16.10;99.90
13652;DHT22;6899;51.546;6.912;2023-10-08T16:06:04;16.00;99.90
13652;DHT22;6899;51.546;6.912;2023-10-08T16:08:31;15.90;99.90
13652;DHT22;6899;51.546;6.912;2023-10-08T16:10:58;15.90;99.90